sensor_id;sensor_type;location;lat;lon;timestamp;P1;durP1;ratioP1;P2;durP2;ratioP2
34146;SDS011;20423;49.448;9.056;2022-09-27T00:04:10;11.6;;;9.2;;
34146;SDS011;20423;49.448;9.056;2022-09-27T00:08:57;9.8;;;9;;
34146;SDS011;20423;49.448;9.056;2022-09-27T00:13:46;8.5;;;7.5;;
34146;SDS011;20423;49.448;9.056;2022-09-27T00:18:46;7.6;;;7.2;;
34146;SDS011;20423;49.448;9.056;2022-09-27T00:23:48;8.8;;;7.6;;
34146;SDS011;20423;49.448;9.056;2022-09-27T00:28:33;8.8;;;7.4;;
34146;SDS011;20423;49.448;9.056;2022-09-27T00:33:26;8.8;;;8.4;;
34146;SDS011;20423;49.448;9.056;2022-09-27T00:38:26;9.6;;;8;;
34146;SDS011;20423;49.448;9.056;2022-09-27T00:44:50;8.2;;;7.2;;
34146;SDS011;20423;49.448;9.056;2022-09-27T00:49:25;9.2;;;8.6;;
34146;SDS011;20423;49.448;9.056;2022-09-27T00:53:46;10.8;;;8.6;;
34146;SDS011;20423;49.448;9.056;2022-09-27T00:58:30;9.2;;;7.8;;
34146;SDS011;20423;49.448;9.056;2022-09-27T01:03:47;8.4;;;8;;
34146;SDS011;20423;49.448;9.056;2022-09-27T01:09:05;7.2;;;6.4;;
34146;SDS011;20423;49.448;9.056;2022-09-27T01:13:58;9.3;;;8.3;;
34146;SDS011;20423;49.448;9.056;2022-09-27T01:18:40;7.8;;;7;;
34146;SDS011;20423;49.448;9.056;2022-09-27T01:23:46;7.8;;;6.8;;
34146;SDS011;20423;49.448;9.056;2022-09-27T01:29:06;8;;;7.4;;
34146;SDS011;20423;49.448;9.056;2022-09-27T01:33:37;10.6;;;9.4;;
34146;SDS011;20423;49.448;9.056;2022-09-27T01:38:54;9.2;;;7.4;;
34146;SDS011;20423;49.448;9.056;2022-09-27T01:44:05;10.8;;;8.2;;
34146;SDS011;20423;49.448;9.056;2022-09-27T01:48:54;9.2;;;8.6;;
34146;SDS011;20423;49.448;9.056;2022-09-27T01:54:01;8.6;;;7.8;;
34146;SDS011;20423;49.448;9.056;2022-09-27T01:58:31;8.8;;;8;;
34146;SDS011;20423;49.448;9.056;2022-09-27T02:04:07;7.8;;;7.8;;
34146;SDS011;20423;49.448;9.056;2022-09-27T02:08:42;7.6;;;6.4;;
34146;SDS011;20423;49.448;9.056;2022-09-27T02:13:30;7.8;;;7;;
34146;SDS011;20423;49.448;9.056;2022-09-27T02:18:52;6.8;;;6.6;;
34146;SDS011;20423;49.448;9.056;2022-09-27T02:24:00;8;;;7;;
34146;SDS011;20423;49.448;9.056;2022-09-27T02:29:15;8.4;;;6.8;;
34146;SDS011;20423;49.448;9.056;2022-09-27T02:33:44;7.4;;;6.8;;
34146;SDS011;20423;49.448;9.056;2022-09-27T02:39:00;7;;;6.2;;
34146;SDS011;20423;49.448;9.056;2022-09-27T02:44:01;6.8;;;6.8;;
34146;SDS011;20423;49.448;9.056;2022-09-27T02:48:53;7.4;;;7.2;;
34146;SDS011;20423;49.448;9.056;2022-09-27T03:03:45;23.8;;;20.2;;
34146;SDS011;20423;49.448;9.056;2022-09-27T03:08:26;20.4;;;19;;
34146;SDS011;20423;49.448;9.056;2022-09-27T03:13:50;14.5;;;12.8;;
34146;SDS011;20423;49.448;9.056;2022-09-27T03:19:08;9.6;;;8.4;;
34146;SDS011;20423;49.448;9.056;2022-09-27T03:24:08;8.8;;;8;;
34146;SDS011;20423;49.448;9.056;2022-09-27T03:28:38;9.6;;;7.6;;
34146;SDS011;20423;49.448;9.056;2022-09-27T03:33:32;10;;;8.6;;
34146;SDS011;20423;49.448;9.056;2022-09-27T03:39:06;12;;;9.4;;
34146;SDS011;20423;49.448;9.056;2022-09-27T03:44:08;10.8;;;9.8;;
34146;SDS011;20423;49.448;9.056;2022-09-27T03:48:26;11.8;;;10.6;;
34146;SDS011;20423;49.448;9.056;2022-09-27T03:53:26;19;;;17;;
34146;SDS011;20423;49.448;9.056;2022-09-27T03:58:44;16;;;14.4;;
34146;SDS011;20423;49.448;9.056;2022-09-27T04:04:03;17.2;;;15.8;;
34146;SDS011;20423;49.448;9.056;2022-09-27T04:08:36;13.8;;;12;;
34146;SDS011;20423;49.448;9.056;2022-09-27T04:13:58;11.6;;;10.8;;
34146;SDS011;20423;49.448;9.056;2022-09-27T04:18:56;12.5;;;10.5;;
34146;SDS011;20423;49.448;9.056;2022-09-27T04:24:08;12.2;;;10.4;;
34146;SDS011;20423;49.448;9.056;2022-09-27T04:29:02;12.4;;;11.2;;
34146;SDS011;20423;49.448;9.056;2022-09-27T04:34:08;14;;;11.8;;
34146;SDS011;20423;49.448;9.056;2022-09-27T04:38:34;14.8;;;13;;
34146;SDS011;20423;49.448;9.056;2022-09-27T04:43:27;13;;;12;;
34146;SDS011;20423;49.448;9.056;2022-09-27T04:48:50;14.6;;;12.2;;
34146;SDS011;20423;49.448;9.056;2022-09-27T04:53:58;10.2;;;9.2;;
34146;SDS011;20423;49.448;9.056;2022-09-27T04:59:08;11;;;10.2;;
34146;SDS011;20423;49.448;9.056;2022-09-27T05:03:26;10.2;;;9.4;;
34146;SDS011;20423;49.448;9.056;2022-09-27T05:08:58;10;;;9.6;;
34146;SDS011;20423;49.448;9.056;2022-09-27T05:13:58;10.6;;;8.8;;
34146;SDS011;20423;49.448;9.056;2022-09-27T05:18:49;11.3;;;9.8;;
34146;SDS011;20423;49.448;9.056;2022-09-27T05:23:34;9.4;;;9;;
34146;SDS011;20423;49.448;9.056;2022-09-27T05:28:38;10;;;9.4;;
34146;SDS011;20423;49.448;9.056;2022-09-27T05:33:36;10.4;;;8.6;;
34146;SDS011;20423;49.448;9.056;2022-09-27T05:38:38;9;;;8.4;;
34146;SDS011;20423;49.448;9.056;2022-09-27T05:43:48;8.8;;;7.2;;
34146;SDS011;20423;49.448;9.056;2022-09-27T05:49:10;8.6;;;7.4;;
34146;SDS011;20423;49.448;9.056;2022-09-27T05:54:10;9.2;;;8.2;;
34146;SDS011;20423;49.448;9.056;2022-09-27T05:58:44;8.6;;;7.2;;
34146;SDS011;20423;49.448;9.056;2022-09-27T06:03:43;9.2;;;8.4;;
34146;SDS011;20423;49.448;9.056;2022-09-27T06:09:09;9.8;;;8;;
34146;SDS011;20423;49.448;9.056;2022-09-27T06:14:11;8.6;;;7.2;;
34146;SDS011;20423;49.448;9.056;2022-09-27T06:18:48;8.3;;;7.5;;
34146;SDS011;20423;49.448;9.056;2022-09-27T06:23:36;7.4;;;6.4;;
34146;SDS011;20423;49.448;9.056;2022-09-27T06:28:36;7.4;;;6.8;;
34146;SDS011;20423;49.448;9.056;2022-09-27T06:34:00;6.6;;;6;;
34146;SDS011;20423;49.448;9.056;2022-09-27T06:38:38;8.2;;;6.6;;
34146;SDS011;20423;49.448;9.056;2022-09-27T06:43:38;6.8;;;6;;
34146;SDS011;20423;49.448;9.056;2022-09-27T06:48:56;7.8;;;6.8;;
34146;SDS011;20423;49.448;9.056;2022-09-27T06:53:46;5.6;;;5.2;;
34146;SDS011;20423;49.448;9.056;2022-09-27T06:59:00;7.2;;;6.2;;
34146;SDS011;20423;49.448;9.056;2022-09-27T07:04:10;6;;;5;;
34146;SDS011;20423;49.448;9.056;2022-09-27T07:08:54;6.2;;;5.6;;
34146;SDS011;20423;49.448;9.056;2022-09-27T07:13:38;8;;;7;;
34146;SDS011;20423;49.448;9.056;2022-09-27T07:18:39;8;;;6.3;;
34146;SDS011;20423;49.448;9.056;2022-09-27T07:24:08;7.6;;;6.8;;
34146;SDS011;20423;49.448;9.056;2022-09-27T07:29:10;9;;;7.4;;
34146;SDS011;20423;49.448;9.056;2022-09-27T07:34:00;8.2;;;8;;
34146;SDS011;20423;49.448;9.056;2022-09-27T07:39:08;8.2;;;8;;
34146;SDS011;20423;49.448;9.056;2022-09-27T07:43:26;9.8;;;8.4;;
34146;SDS011;20423;49.448;9.056;2022-09-27T07:48:49;8.4;;;8;;
34146;SDS011;20423;49.448;9.056;2022-09-27T07:53:26;8.8;;;8.8;;
34146;SDS011;20423;49.448;9.056;2022-09-27T07:58:59;9.8;;;8.6;;
34146;SDS011;20423;49.448;9.056;2022-09-27T08:03:34;15;;;12.6;;
34146;SDS011;20423;49.448;9.056;2022-09-27T08:08:37;9.6;;;8.8;;
34146;SDS011;20423;49.448;9.056;2022-09-27T08:13:48;10.4;;;9;;
34146;SDS011;20423;49.448;9.056;2022-09-27T08:19:09;9.8;;;7.8;;
34146;SDS011;20423;49.448;9.056;2022-09-27T08:24:09;9.5;;;8;;
34146;SDS011;20423;49.448;9.056;2022-09-27T08:28:46;7.6;;;7.2;;
34146;SDS011;20423;49.448;9.056;2022-09-27T08:33:26;8.4;;;7.4;;
34146;SDS011;20423;49.448;9.056;2022-09-27T08:38:52;8;;;7;;
34146;SDS011;20423;49.448;9.056;2022-09-27T08:44:10;8.8;;;7.2;;
34146;SDS011;20423;49.448;9.056;2022-09-27T08:48:48;7.8;;;7.4;;
34146;SDS011;20423;49.448;9.056;2022-09-27T08:53:37;9.2;;;7.2;;
34146;SDS011;20423;49.448;9.056;2022-09-27T08:58:28;10.6;;;8.4;;
34146;SDS011;20423;49.448;9.056;2022-09-27T09:03:59;7.2;;;6.8;;
34146;SDS011;20423;49.448;9.056;2022-09-27T09:13:49;9.2;;;7.8;;
34146;SDS011;20423;49.448;9.056;2022-09-27T09:18:52;8.8;;;7.2;;
34146;SDS011;20423;49.448;9.056;2022-09-27T09:24:00;8.8;;;7.8;;
34146;SDS011;20423;49.448;9.056;2022-09-27T09:29:09;7.6;;;6.2;;
34146;SDS011;20423;49.448;9.056;2022-09-27T09:34:08;8;;;7.2;;
34146;SDS011;20423;49.448;9.056;2022-09-27T09:38:55;8.4;;;7.2;;
34146;SDS011;20423;49.448;9.056;2022-09-27T09:43:41;8;;;7.4;;
34146;SDS011;20423;49.448;9.056;2022-09-27T09:48:40;7.6;;;6.6;;
34146;SDS011;20423;49.448;9.056;2022-09-27T09:54:14;8;;;7.4;;
34146;SDS011;20423;49.448;9.056;2022-09-27T09:58:59;7;;;6;;
34146;SDS011;20423;49.448;9.056;2022-09-27T10:04:01;7.8;;;6.8;;
34146;SDS011;20423;49.448;9.056;2022-09-27T10:09:10;8.8;;;8.2;;
34146;SDS011;20423;49.448;9.056;2022-09-27T10:13:57;7.6;;;7;;
34146;SDS011;20423;49.448;9.056;2022-09-27T10:18:49;6.2;;;5.8;;
34146;SDS011;20423;49.448;9.056;2022-09-27T10:24:20;8.3;;;6.8;;
34146;SDS011;20423;49.448;9.056;2022-09-27T10:29:13;7.2;;;6.6;;
34146;SDS011;20423;49.448;9.056;2022-09-27T10:33:59;6.8;;;6;;
34146;SDS011;20423;49.448;9.056;2022-09-27T10:38:37;7.8;;;6.6;;
34146;SDS011;20423;49.448;9.056;2022-09-27T10:43:37;8.4;;;7;;
34146;SDS011;20423;49.448;9.056;2022-09-27T10:49:42;8.2;;;6.8;;
34146;SDS011;20423;49.448;9.056;2022-09-27T10:54:19;7;;;5.4;;
34146;SDS011;20423;49.448;9.056;2022-09-27T10:58:45;8;;;7.2;;
34146;SDS011;20423;49.448;9.056;2022-09-27T11:03:35;9.6;;;8;;
34146;SDS011;20423;49.448;9.056;2022-09-27T11:08:55;9;;;6.8;;
34146;SDS011;20423;49.448;9.056;2022-09-27T11:14:17;7.2;;;6;;
34146;SDS011;20423;49.448;9.056;2022-09-27T11:23:32;7.3;;;7;;
34146;SDS011;20423;49.448;9.056;2022-09-27T11:28:48;6.8;;;6.2;;
34146;SDS011;20423;49.448;9.056;2022-09-27T11:34:06;6.8;;;5.8;;
34146;SDS011;20423;49.448;9.056;2022-09-27T11:39:25;5.8;;;5.6;;
34146;SDS011;20423;49.448;9.056;2022-09-27T11:44:56;6.2;;;5.8;;
34146;SDS011;20423;49.448;9.056;2022-09-27T11:49:18;8.8;;;7.4;;
34146;SDS011;20423;49.448;9.056;2022-09-27T11:59:04;8;;;7.4;;
34146;SDS011;20423;49.448;9.056;2022-09-27T12:04:12;6.2;;;5.6;;
34146;SDS011;20423;49.448;9.056;2022-09-27T12:09:04;5.8;;;4.8;;
34146;SDS011;20423;49.448;9.056;2022-09-27T12:13:56;4.2;;;4;;
34146;SDS011;20423;49.448;9.056;2022-09-27T12:18:38;4.6;;;4;;
34146;SDS011;20423;49.448;9.056;2022-09-27T12:24:14;4.8;;;4;;
34146;SDS011;20423;49.448;9.056;2022-09-27T12:29:11;6;;;5.3;;
34146;SDS011;20423;49.448;9.056;2022-09-27T12:34:13;5.6;;;4.2;;
34146;SDS011;20423;49.448;9.056;2022-09-27T12:39:12;4.4;;;4.2;;
34146;SDS011;20423;49.448;9.056;2022-09-27T12:43:57;5.8;;;5.2;;
34146;SDS011;20423;49.448;9.056;2022-09-27T12:50:26;6.2;;;4.6;;
